Bol'shoy Kamen', Russia
Current Conditions -  °F | °C
As of 10:30 PM on Thursday 30 Oct 2014 (Local Time) from UHWW Reporting Station
Haze Haze  
Wind Chill: 38°   Ceiling: 20000
Heat Index: 41°   Visibility: 0.93mi
Dew Point: 41°   Wind: 4mph
Humidity: 100%   Direction: 40°NE
Pressure: 30.21"   Gusts: NA
Location:  43.13°N, 132.47°E
Report Text: UHWW 301230Z 04002MPS 1500 BR BKN200 05/05 Q1023 NOSIG RMKQFE766/1022 57CLRD70
Loading
Personal Weather Stations






























Interactive Weather Map
Tropical Storm Tracking
New forecast layout! Learn more

10-Day Weather Forecast

Advertisements
Track Severe Weather on mobile